Time;durP1;ratioP1;P1;durP2;ratioP2;P2;SDS_P1;SDS_P2;PMS_P1;PMS_P2;Temp;Humidity;BMP_temperature;BMP_pressure;BME280_temperature;BME280_humidity;BME280_pressure;Samples;Min_cycle;Max_cycle;Signal;HPM_P1;HPM_P2
2023/05/12 00:00:38;;;;;;;5.50;2.88;;;;;;;;;;5092866;28;20103;-76
2023/05/12 00:03:04;;;;;;;4.45;2.72;;;;;;;;;;5092954;28;20527;-76
2023/05/12 00:05:31;;;;;;;6.45;3.28;;;;;;;;;;5074693;28;20024;-76
2023/05/12 00:07:57;;;;;;;4.60;3.08;;;;;;;;;;5093326;28;20105;-76
2023/05/12 00:10:23;;;;;;;5.95;3.22;;;;;;;;;;5095324;28;20080;-76
2023/05/12 00:12:49;;;;;;;9.38;4.80;;;;;;;;;;5096501;28;20442;-76
2023/05/12 00:15:15;;;;;;;8.25;5.30;;;;;;;;;;5096536;28;20038;-76
2023/05/12 00:17:41;;;;;;;9.77;4.05;;;;;;;;;;5096488;28;20103;-75
2023/05/12 00:20:08;;;;;;;7.00;4.13;;;;;;;;;;5096290;28;20193;-76
2023/05/12 00:22:34;;;;;;;6.78;3.88;;;;;;;;;;5096260;28;20374;-76
2023/05/12 00:25:00;;;;;;;11.40;6.18;;;;;;;;;;5095845;28;20103;-76
2023/05/12 00:27:26;;;;;;;8.43;4.90;;;;;;;;;;5095994;28;20024;-76
2023/05/12 00:29:52;;;;;;;8.93;5.07;;;;;;;;;;5095949;28;20051;-76
2023/05/12 00:32:18;;;;;;;7.78;3.85;;;;;;;;;;5095714;28;20109;-76
2023/05/12 00:34:44;;;;;;;10.52;4.25;;;;;;;;;;5095794;28;20043;-76
2023/05/12 00:37:10;;;;;;;5.55;3.88;;;;;;;;;;5077694;28;20561;-76
2023/05/12 00:39:36;;;;;;;6.90;3.50;;;;;;;;;;5096125;28;20028;-76
2023/05/12 00:42:02;;;;;;;5.00;3.00;;;;;;;;;;5096435;28;20059;-76
2023/05/12 00:44:28;;;;;;;10.85;4.72;;;;;;;;;;5095754;28;20056;-76
2023/05/12 00:46:55;;;;;;;6.30;4.03;;;;;;;;;;5095488;28;20434;-76
2023/05/12 00:49:21;;;;;;;7.13;3.40;;;;;;;;;;5095971;28;20374;-76
2023/05/12 00:51:47;;;;;;;5.60;3.15;;;;;;;;;;5095438;28;20034;-76
2023/05/12 00:54:13;;;;;;;6.13;3.60;;;;;;;;;;5095563;28;20122;-76
2023/05/12 00:56:39;;;;;;;6.00;2.97;;;;;;;;;;5095502;28;20512;-76
2023/05/12 00:59:05;;;;;;;6.20;3.78;;;;;;;;;;5095419;28;20416;-76
2023/05/12 01:01:32;;;;;;;8.32;3.85;;;;;;;;;;5095522;28;20462;-76
2023/05/12 01:04:02;;;;;;;5.20;2.95;;;;;;;;;;5095427;28;20029;-76
2023/05/12 01:06:31;;;;;;;4.22;2.63;;;;;;;;;;5095637;28;20027;-76
2023/05/12 01:08:57;;;;;;;5.60;3.63;;;;;;;;;;5095130;28;20107;-76
2023/05/12 01:11:23;;;;;;;3.72;2.10;;;;;;;;;;5095348;28;20482;-76
2023/05/12 01:13:49;;;;;;;6.57;3.75;;;;;;;;;;5095667;28;20055;-76
2023/05/12 01:16:17;;;;;;;5.38;3.13;;;;;;;;;;5095312;28;20024;-76
2023/05/12 01:18:49;;;;;;;5.10;3.42;;;;;;;;;;5094972;28;20026;-76
2023/05/12 01:21:16;;;;;;;7.30;3.80;;;;;;;;;;5095323;28;20020;-76
2023/05/12 01:23:44;;;;;;;8.70;4.55;;;;;;;;;;5095139;28;20130;-76
2023/05/12 01:26:10;;;;;;;6.40;3.95;;;;;;;;;;5095047;28;20043;-76
2023/05/12 01:28:37;;;;;;;8.25;5.18;;;;;;;;;;5094987;28;20021;-76
2023/05/12 01:31:03;;;;;;;11.05;4.95;;;;;;;;;;5094984;28;20024;-76
2023/05/12 01:33:29;;;;;;;6.38;3.78;;;;;;;;;;5094929;28;20044;-76
2023/05/12 01:35:55;;;;;;;7.57;4.53;;;;;;;;;;5094851;28;20024;-76
2023/05/12 01:38:21;;;;;;;9.23;5.05;;;;;;;;;;5094943;28;20108;-76
2023/05/12 01:40:47;;;;;;;11.68;6.07;;;;;;;;;;5095093;28;20024;-76
2023/05/12 01:43:13;;;;;;;14.70;7.45;;;;;;;;;;5094640;28;20032;-76
2023/05/12 01:45:42;;;;;;;10.02;4.43;;;;;;;;;;5094688;28;20498;-76
2023/05/12 01:48:08;;;;;;;14.45;7.65;;;;;;;;;;5094541;28;20073;-76
2023/05/12 01:50:34;;;;;;;12.60;7.22;;;;;;;;;;5094559;28;20024;-76
2023/05/12 01:53:00;;;;;;;10.07;5.43;;;;;;;;;;5094778;28;20077;-76
2023/05/12 01:55:26;;;;;;;14.05;8.10;;;;;;;;;;5094716;28;20020;-76
2023/05/12 01:57:52;;;;;;;9.98;6.22;;;;;;;;;;5094635;28;20415;-76
2023/05/12 02:00:18;;;;;;;13.60;7.38;;;;;;;;;;5094688;28;20024;-76
2023/05/12 02:02:44;;;;;;;13.73;7.15;;;;;;;;;;5094424;28;20367;-76
2023/05/12 02:05:10;;;;;;;13.48;7.03;;;;;;;;;;5093964;28;20032;-76
2023/05/12 02:07:36;;;;;;;11.93;5.80;;;;;;;;;;5094046;28;20020;-76
2023/05/12 02:10:02;;;;;;;11.65;6.90;;;;;;;;;;5084285;28;20052;-76
2023/05/12 02:12:28;;;;;;;9.32;5.22;;;;;;;;;;5094569;28;20024;-76
2023/05/12 02:14:55;;;;;;;14.93;9.15;;;;;;;;;;5094243;28;20362;-76
2023/05/12 02:17:23;;;;;;;12.18;7.25;;;;;;;;;;5094447;28;20028;-76
2023/05/12 02:19:50;;;;;;;13.32;6.32;;;;;;;;;;5094306;28;20095;-76
2023/05/12 02:22:16;;;;;;;11.77;7.50;;;;;;;;;;5094427;28;20035;-76
2023/05/12 02:24:42;;;;;;;19.60;8.32;;;;;;;;;;5094082;28;20031;-76
2023/05/12 02:27:08;;;;;;;15.40;6.68;;;;;;;;;;5094037;28;20020;-76
2023/05/12 02:29:37;;;;;;;17.92;9.55;;;;;;;;;;5093720;28;20024;-76
2023/05/12 02:32:04;;;;;;;13.88;7.60;;;;;;;;;;5093416;28;20024;-76
2023/05/12 02:34:30;;;;;;;10.73;6.38;;;;;;;;;;5093950;28;20028;-77
2023/05/12 02:36:56;;;;;;;22.45;8.73;;;;;;;;;;5093863;28;20027;-76
2023/05/12 02:39:22;;;;;;;17.05;8.90;;;;;;;;;;5073539;28;20032;-76
2023/05/12 02:41:48;;;;;;;15.40;8.00;;;;;;;;;;5073675;28;20647;-76
2023/05/12 02:44:15;;;;;;;12.45;6.22;;;;;;;;;;5073402;28;20043;-76
2023/05/12 02:46:41;;;;;;;12.13;5.68;;;;;;;;;;5073594;28;20073;-76
2023/05/12 02:49:07;;;;;;;15.90;6.82;;;;;;;;;;5073436;28;20099;-76
2023/05/12 02:51:33;;;;;;;13.48;6.60;;;;;;;;;;5073485;28;20052;-76
2023/05/12 02:54:00;;;;;;;11.98;5.55;;;;;;;;;;5073403;28;20036;-76
2023/05/12 02:56:26;;;;;;;12.50;7.32;;;;;;;;;;5055434;28;20052;-76
2023/05/12 02:58:52;;;;;;;8.02;4.72;;;;;;;;;;5073477;28;20060;-76
2023/05/12 03:01:18;;;;;;;14.95;6.50;;;;;;;;;;5084246;28;20044;-76
2023/05/12 03:03:44;;;;;;;10.95;6.40;;;;;;;;;;5075540;28;20439;-76
2023/05/12 03:06:10;;;;;;;13.85;6.53;;;;;;;;;;5093446;28;20048;-76
2023/05/12 03:08:36;;;;;;;17.20;8.50;;;;;;;;;;5093229;28;20413;-76
2023/05/12 03:11:02;;;;;;;20.08;8.93;;;;;;;;;;5092532;28;20105;-76
2023/05/12 03:13:28;;;;;;;15.93;7.72;;;;;;;;;;5093344;28;20064;-76
2023/05/12 03:15:54;;;;;;;14.35;7.25;;;;;;;;;;5093352;28;20020;-76
2023/05/12 03:18:20;;;;;;;14.15;7.15;;;;;;;;;;5093660;28;20030;-77
2023/05/12 03:20:46;;;;;;;19.77;8.52;;;;;;;;;;5093191;28;20420;-76
2023/05/12 03:23:12;;;;;;;18.50;7.47;;;;;;;;;;5093475;28;20463;-77
2023/05/12 03:25:38;;;;;;;19.55;9.00;;;;;;;;;;5093614;28;20103;-76
2023/05/12 03:28:04;;;;;;;17.75;8.85;;;;;;;;;;5093295;28;20367;-76
2023/05/12 03:30:31;;;;;;;22.55;9.68;;;;;;;;;;5093431;28;20072;-76
2023/05/12 03:32:57;;;;;;;24.83;10.80;;;;;;;;;;5093987;28;20106;-77
2023/05/12 03:35:24;;;;;;;24.23;11.25;;;;;;;;;;5093251;28;20505;-77
2023/05/12 03:37:50;;;;;;;19.00;7.72;;;;;;;;;;5093558;28;20046;-77
2023/05/12 03:40:17;;;;;;;24.25;12.98;;;;;;;;;;5093199;28;20581;-77
2023/05/12 03:42:44;;;;;;;19.83;9.48;;;;;;;;;;5095201;28;20016;-77
2023/05/12 03:45:10;;;;;;;26.35;11.07;;;;;;;;;;5097175;28;20347;-77
2023/05/12 03:47:37;;;;;;;28.33;12.10;;;;;;;;;;5096944;28;20024;-76
2023/05/12 03:50:05;;;;;;;30.38;12.10;;;;;;;;;;5079050;28;20555;-77
2023/05/12 03:52:31;;;;;;;39.10;15.35;;;;;;;;;;5096901;28;20031;-77
2023/05/12 03:54:57;;;;;;;20.05;9.35;;;;;;;;;;5096776;28;20115;-76
2023/05/12 03:57:23;;;;;;;24.73;11.88;;;;;;;;;;5096748;28;20049;-76
2023/05/12 03:59:50;;;;;;;29.95;13.15;;;;;;;;;;5096956;28;20412;-76
2023/05/12 04:02:16;;;;;;;27.10;13.07;;;;;;;;;;5096938;28;20027;-76
2023/05/12 04:04:42;;;;;;;34.20;14.43;;;;;;;;;;5076258;28;20032;-76
2023/05/12 04:07:08;;;;;;;31.35;12.63;;;;;;;;;;5092321;28;20035;-76
2023/05/12 04:09:34;;;;;;;30.05;12.00;;;;;;;;;;5096162;28;20040;-76
2023/05/12 04:12:00;;;;;;;38.50;15.40;;;;;;;;;;5096528;28;20447;-76
2023/05/12 04:14:26;;;;;;;35.67;15.07;;;;;;;;;;5078201;28;20115;-76
2023/05/12 04:16:52;;;;;;;22.75;11.02;;;;;;;;;;5078241;28;20020;-77
2023/05/12 04:19:18;;;;;;;35.42;15.02;;;;;;;;;;5096229;28;20103;-76
2023/05/12 04:21:45;;;;;;;39.20;16.50;;;;;;;;;;5096237;28;20028;-76
2023/05/12 04:24:11;;;;;;;35.47;14.88;;;;;;;;;;5096415;28;20025;-76
2023/05/12 04:26:37;;;;;;;42.25;19.17;;;;;;;;;;5096415;28;20082;-76
2023/05/12 04:29:03;;;;;;;37.00;15.43;;;;;;;;;;5096465;28;20100;-76
2023/05/12 04:31:29;;;;;;;32.70;13.90;;;;;;;;;;5096256;28;20532;-76
2023/05/12 04:33:55;;;;;;;41.60;15.70;;;;;;;;;;5096226;28;20030;-77
2023/05/12 04:36:21;;;;;;;36.30;15.63;;;;;;;;;;5096409;28;20381;-76
2023/05/12 04:38:47;;;;;;;37.85;15.73;;;;;;;;;;5096161;28;20879;-76
2023/05/12 04:41:13;;;;;;;27.73;12.75;;;;;;;;;;5096031;28;20451;-76
2023/05/12 04:43:39;;;;;;;43.17;17.23;;;;;;;;;;5096046;28;20028;-76
2023/05/12 04:46:05;;;;;;;43.15;15.70;;;;;;;;;;5095806;28;20027;-76
2023/05/12 04:48:31;;;;;;;38.85;15.27;;;;;;;;;;5095811;28;20515;-76
2023/05/12 04:51:01;;;;;;;38.58;15.50;;;;;;;;;;5095857;28;20032;-76
2023/05/12 04:53:27;;;;;;;32.30;16.10;;;;;;;;;;5095363;28;20157;-76
2023/05/12 04:55:55;;;;;;;41.38;17.58;;;;;;;;;;5095442;28;20027;-76
2023/05/12 04:58:21;;;;;;;35.15;14.90;;;;;;;;;;5096141;28;20016;-76
2023/05/12 05:00:47;;;;;;;41.80;16.88;;;;;;;;;;5095610;28;20024;-76
2023/05/12 05:03:19;;;;;;;30.95;13.95;;;;;;;;;;5095952;28;20028;-76
2023/05/12 05:05:47;;;;;;;44.03;18.10;;;;;;;;;;5095452;28;20051;-76
2023/05/12 05:08:14;;;;;;;44.08;17.00;;;;;;;;;;5095923;28;20133;-76
2023/05/12 05:10:40;;;;;;;43.30;17.52;;;;;;;;;;5093922;28;20583;-76
2023/05/12 05:13:06;;;;;;;33.08;15.18;;;;;;;;;;5095345;28;20494;-76
2023/05/12 05:15:32;;;;;;;41.40;17.70;;;;;;;;;;5095386;28;20028;-76
2023/05/12 05:17:58;;;;;;;36.42;16.90;;;;;;;;;;5095329;28;20036;-76
2023/05/12 05:20:24;;;;;;;42.35;16.65;;;;;;;;;;5095589;28;20031;-76
2023/05/12 05:22:51;;;;;;;42.47;16.90;;;;;;;;;;5095004;28;20077;-76
2023/05/12 05:25:17;;;;;;;39.92;17.08;;;;;;;;;;5095196;28;20044;-76
2023/05/12 05:27:43;;;;;;;44.47;19.40;;;;;;;;;;5095144;28;20394;-76
2023/05/12 05:30:09;;;;;;;35.15;15.43;;;;;;;;;;5095133;28;20051;-77
2023/05/12 05:32:39;;;;;;;26.95;11.00;;;;;;;;;;5095333;28;20028;-77
2023/05/12 05:35:05;;;;;;;37.92;16.33;;;;;;;;;;5095421;28;20417;-77
2023/05/12 05:37:31;;;;;;;31.45;12.55;;;;;;;;;;5095209;28;20054;-77
2023/05/12 05:39:57;;;;;;;37.55;16.77;;;;;;;;;;5095378;28;20103;-77
2023/05/12 05:42:23;;;;;;;31.00;14.63;;;;;;;;;;5095154;28;20047;-77
2023/05/12 05:44:49;;;;;;;42.35;17.63;;;;;;;;;;5095062;28;20466;-77
2023/05/12 05:50:07;;;;;;;40.35;17.08;;;;;;;;;;5095147;28;20039;-77
2023/05/12 05:52:33;;;;;;;38.25;17.75;;;;;;;;;;5094853;28;20020;-77
2023/05/12 05:55:00;;;;;;;43.15;19.00;;;;;;;;;;5094793;28;20065;-77
2023/05/12 05:57:27;;;;;;;49.03;20.10;;;;;;;;;;5095572;28;20032;-77
2023/05/12 05:59:53;;;;;;;44.83;18.58;;;;;;;;;;5095454;28;20027;-77
2023/05/12 06:02:22;;;;;;;34.75;16.10;;;;;;;;;;5094582;28;20458;-77
2023/05/12 06:04:48;;;;;;;43.22;19.02;;;;;;;;;;5095595;28;20020;-78
2023/05/12 06:07:14;;;;;;;38.58;17.23;;;;;;;;;;5094804;28;20636;-78
2023/05/12 06:09:40;;;;;;;37.42;18.10;;;;;;;;;;5093377;28;20471;-77
2023/05/12 06:12:06;;;;;;;42.95;16.90;;;;;;;;;;5094466;28;20028;-77
2023/05/12 06:14:32;;;;;;;38.97;16.75;;;;;;;;;;5094247;28;20032;-78
2023/05/12 06:16:58;;;;;;;42.85;19.23;;;;;;;;;;5094324;28;20028;-77
2023/05/12 06:19:24;;;;;;;42.83;19.15;;;;;;;;;;5094443;28;20039;-77
2023/05/12 06:21:51;;;;;;;42.42;18.00;;;;;;;;;;5094470;28;20038;-77
2023/05/12 06:24:17;;;;;;;39.65;18.05;;;;;;;;;;5094599;28;20031;-77
2023/05/12 06:26:43;;;;;;;39.53;18.85;;;;;;;;;;5094376;28;20024;-78
2023/05/12 06:29:09;;;;;;;40.53;18.85;;;;;;;;;;5094147;28;20069;-77
2023/05/12 06:31:35;;;;;;;42.22;19.48;;;;;;;;;;5112594;28;20027;-77
2023/05/12 06:34:01;;;;;;;41.63;20.08;;;;;;;;;;5094925;28;20058;-77
2023/05/12 06:36:28;;;;;;;38.78;17.23;;;;;;;;;;5094337;28;20031;-77
2023/05/12 06:39:08;;;;;;;42.72;19.65;;;;;;;;;;5094171;28;20073;-77
2023/05/12 06:41:36;;;;;;;44.13;20.38;;;;;;;;;;5098949;28;20031;-76
2023/05/12 06:44:02;;;;;;;39.95;18.95;;;;;;;;;;5101059;28;20086;-76
2023/05/12 06:46:28;;;;;;;36.40;17.45;;;;;;;;;;5093946;28;20032;-76
2023/05/12 06:48:54;;;;;;;38.42;17.60;;;;;;;;;;5093639;28;20028;-76
2023/05/12 06:51:20;;;;;;;38.20;16.05;;;;;;;;;;5076559;28;20016;-76
2023/05/12 06:53:46;;;;;;;36.58;17.95;;;;;;;;;;5094651;28;20031;-76
2023/05/12 06:56:15;;;;;;;37.92;18.02;;;;;;;;;;5094202;28;20103;-76
2023/05/12 06:58:41;;;;;;;36.43;18.23;;;;;;;;;;5094152;28;20030;-76
2023/05/12 07:01:07;;;;;;;35.78;19.00;;;;;;;;;;5093609;28;20055;-76
2023/05/12 07:03:33;;;;;;;38.63;17.27;;;;;;;;;;5093686;28;20055;-76
2023/05/12 07:06:00;;;;;;;36.95;18.65;;;;;;;;;;5093338;28;20081;-76
2023/05/12 07:08:26;;;;;;;42.20;19.92;;;;;;;;;;5075551;28;20016;-76
2023/05/12 07:10:52;;;;;;;39.53;16.77;;;;;;;;;;5093148;28;20475;-76
2023/05/12 07:13:18;;;;;;;38.25;19.17;;;;;;;;;;5075293;28;20028;-76
2023/05/12 07:15:44;;;;;;;29.65;14.18;;;;;;;;;;5093751;28;20514;-76
2023/05/12 07:18:10;;;;;;;34.72;18.15;;;;;;;;;;5092896;28;20058;-76
2023/05/12 07:20:38;;;;;;;38.38;17.98;;;;;;;;;;5093168;28;20052;-76
2023/05/12 07:23:06;;;;;;;36.45;18.25;;;;;;;;;;5093320;28;20032;-76
2023/05/12 07:25:32;;;;;;;34.65;16.95;;;;;;;;;;5093463;28;20062;-76
2023/05/12 07:27:58;;;;;;;26.15;14.85;;;;;;;;;;5093119;28;20024;-76
2023/05/12 07:30:24;;;;;;;33.30;17.42;;;;;;;;;;5100444;28;20035;-76
2023/05/12 07:32:50;;;;;;;33.10;18.08;;;;;;;;;;5094277;28;20024;-76
2023/05/12 07:35:16;;;;;;;35.17;17.65;;;;;;;;;;5093704;28;20024;-76
2023/05/12 07:37:42;;;;;;;29.17;15.95;;;;;;;;;;5093452;28;20029;-76
2023/05/12 07:40:08;;;;;;;34.15;17.30;;;;;;;;;;5093503;28;20024;-76
2023/05/12 07:42:34;;;;;;;30.77;16.40;;;;;;;;;;5093396;28;20028;-76
2023/05/12 07:45:00;;;;;;;29.90;15.82;;;;;;;;;;5093459;28;20364;-76
2023/05/12 07:47:27;;;;;;;29.40;16.63;;;;;;;;;;5093235;28;20030;-76
2023/05/12 07:49:53;;;;;;;29.95;16.80;;;;;;;;;;5093129;28;20017;-76
2023/05/12 07:52:19;;;;;;;34.22;18.23;;;;;;;;;;5093422;28;20039;-78
2023/05/12 07:54:45;;;;;;;30.20;17.58;;;;;;;;;;5093594;28;20036;-78
2023/05/12 07:57:11;;;;;;;26.58;16.33;;;;;;;;;;5093207;28;20367;-77
2023/05/12 07:59:37;;;;;;;28.92;17.33;;;;;;;;;;5093096;28;20028;-76
2023/05/12 08:02:03;;;;;;;24.83;14.52;;;;;;;;;;5093171;28;20359;-77
2023/05/12 08:04:29;;;;;;;29.92;17.80;;;;;;;;;;5075462;28;20039;-76
2023/05/12 08:07:14;;;;;;;27.20;16.27;;;;;;;;;;5093398;28;20409;-77
2023/05/12 08:09:40;;;;;;;22.40;12.85;;;;;;;;;;5093331;28;20379;-77
2023/05/12 08:12:06;;;;;;;25.25;16.23;;;;;;;;;;5093210;28;20031;-77
2023/05/12 08:14:32;;;;;;;25.20;14.85;;;;;;;;;;5093001;28;20028;-77
2023/05/12 08:16:58;;;;;;;28.17;15.68;;;;;;;;;;5093369;28;20031;-78
2023/05/12 08:19:24;;;;;;;20.10;12.85;;;;;;;;;;5092810;28;20474;-76
2023/05/12 08:21:50;;;;;;;28.33;16.25;;;;;;;;;;5100238;28;20032;-77
2023/05/12 08:24:16;;;;;;;27.02;15.73;;;;;;;;;;5097952;28;20028;-77
2023/05/12 08:26:42;;;;;;;25.52;15.52;;;;;;;;;;5090452;28;20085;-77
2023/05/12 08:29:08;;;;;;;22.00;14.30;;;;;;;;;;5090907;28;20028;-76
2023/05/12 08:31:36;;;;;;;28.40;17.15;;;;;;;;;;5093541;28;20028;-77
2023/05/12 08:34:02;;;;;;;23.38;12.52;;;;;;;;;;5093764;28;20415;-77
2023/05/12 08:36:28;;;;;;;23.50;15.25;;;;;;;;;;5093894;28;20063;-77
2023/05/12 08:38:55;;;;;;;26.35;14.95;;;;;;;;;;5093500;28;20020;-77
2023/05/12 08:41:42;;;;;;;23.25;15.63;;;;;;;;;;5093491;28;20035;-77
2023/05/12 08:44:08;;;;;;;26.38;17.85;;;;;;;;;;5093634;28;20020;-77
2023/05/12 08:46:35;;;;;;;28.95;17.92;;;;;;;;;;5097783;28;20039;-77
2023/05/12 08:49:02;;;;;;;25.13;17.35;;;;;;;;;;5093408;28;20059;-77
2023/05/12 08:51:31;;;;;;;32.50;16.90;;;;;;;;;;5092905;28;20059;-77
2023/05/12 08:53:57;;;;;;;29.38;18.05;;;;;;;;;;5093393;28;20413;-77
2023/05/12 08:56:23;;;;;;;24.52;16.10;;;;;;;;;;5092875;28;20020;-77
2023/05/12 08:58:50;;;;;;;27.80;18.35;;;;;;;;;;5086430;28;20032;-77
2023/05/12 09:01:16;;;;;;;28.27;17.13;;;;;;;;;;5092722;28;20114;-77
2023/05/12 09:03:42;;;;;;;27.33;18.25;;;;;;;;;;5092824;28;20024;-77
2023/05/12 09:06:10;;;;;;;25.63;17.60;;;;;;;;;;5089206;28;20028;-77
2023/05/12 09:08:36;;;;;;;23.45;15.95;;;;;;;;;;5084226;28;20027;-77
2023/05/12 09:11:02;;;;;;;25.63;17.65;;;;;;;;;;5098107;28;20059;-77
2023/05/12 09:13:46;;;;;;;26.58;16.88;;;;;;;;;;5099913;28;20051;-76
2023/05/12 09:16:14;;;;;;;24.27;16.83;;;;;;;;;;5098052;28;20432;-76
2023/05/12 09:18:53;;;;;;;24.40;16.13;;;;;;;;;;5097330;28;20493;-77
2023/05/12 09:21:19;;;;;;;21.92;16.33;;;;;;;;;;5092388;28;20032;-77
2023/05/12 09:23:58;;;;;;;21.95;14.65;;;;;;;;;;5093194;28;20040;-77
2023/05/12 09:26:25;;;;;;;18.17;13.52;;;;;;;;;;5094639;28;20029;-77
2023/05/12 09:28:55;;;;;;;18.42;14.05;;;;;;;;;;5079100;28;21564;-77
2023/05/12 09:31:21;;;;;;;;;;;;;;;;;;5116095;28;20027;-77
2023/05/12 09:34:07;;;;;;;16.27;12.15;;;;;;;;;;5115613;28;19912;-78
2023/05/12 09:36:34;;;;;;;24.90;15.13;;;;;;;;;;5115547;28;20094;-78
2023/05/12 09:39:03;;;;;;;21.17;14.82;;;;;;;;;;5116712;28;20023;-78
2023/05/12 09:41:29;;;;;;;20.90;15.10;;;;;;;;;;5109439;28;20020;-78
2023/05/12 09:43:55;;;;;;;16.85;12.85;;;;;;;;;;5095433;28;20683;-78
2023/05/12 09:46:21;;;;;;;18.48;13.82;;;;;;;;;;5077140;28;20028;-77
2023/05/12 09:48:47;;;;;;;17.63;13.18;;;;;;;;;;5095162;28;20478;-78
2023/05/12 09:51:17;;;;;;;18.38;14.65;;;;;;;;;;5095239;28;20020;-78
2023/05/12 09:53:43;;;;;;;20.10;13.48;;;;;;;;;;5095737;28;20492;-78
2023/05/12 09:56:13;;;;;;;18.67;13.52;;;;;;;;;;5095031;28;20020;-78
2023/05/12 09:58:42;;;;;;;21.50;15.73;;;;;;;;;;5094671;28;20020;-78
2023/05/12 10:01:09;;;;;;;23.38;14.88;;;;;;;;;;5095256;28;20016;-78
2023/05/12 10:03:36;;;;;;;19.83;16.40;;;;;;;;;;5094950;28;20059;-78
2023/05/12 10:06:02;;;;;;;17.27;15.32;;;;;;;;;;5094809;28;20020;-78
2023/05/12 10:08:41;;;;;;;16.45;14.05;;;;;;;;;;5094565;28;20031;-78
2023/05/12 10:11:08;;;;;;;18.15;13.68;;;;;;;;;;5094945;28;20548;-78
2023/05/12 10:13:34;;;;;;;14.82;13.23;;;;;;;;;;5094703;28;20064;-78
2023/05/12 10:16:04;;;;;;;16.20;13.77;;;;;;;;;;5095113;28;20051;-78
2023/05/12 10:18:30;;;;;;;15.18;12.25;;;;;;;;;;5094911;28;20133;-78
2023/05/12 10:20:57;;;;;;;15.93;14.25;;;;;;;;;;5094642;28;20481;-78
2023/05/12 10:23:25;;;;;;;19.20;13.82;;;;;;;;;;5095388;28;20031;-78
2023/05/12 10:25:52;;;;;;;13.52;9.57;;;;;;;;;;5097285;28;20032;-79
2023/05/12 10:28:19;;;;;;;11.07;8.90;;;;;;;;;;5094379;28;20024;-77
2023/05/12 10:30:46;;;;;;;11.65;10.18;;;;;;;;;;5094504;28;20038;-78
2023/05/12 10:33:12;;;;;;;15.98;12.82;;;;;;;;;;5094106;28;20099;-77
2023/05/12 10:35:39;;;;;;;12.95;10.30;;;;;;;;;;5094477;28;20048;-78
2023/05/12 10:38:06;;;;;;;11.93;10.63;;;;;;;;;;5093948;28;20024;-77
2023/05/12 10:40:33;;;;;;;10.48;9.27;;;;;;;;;;5092922;28;20032;-77
2023/05/12 10:43:02;;;;;;;14.48;12.70;;;;;;;;;;5093868;28;20024;-77
2023/05/12 10:45:28;;;;;;;12.10;10.85;;;;;;;;;;5094125;28;20091;-77
2023/05/12 10:48:04;;;;;;;14.25;11.57;;;;;;;;;;5094377;28;20020;-77
2023/05/12 10:50:30;;;;;;;15.88;12.43;;;;;;;;;;5094378;28;20021;-77
2023/05/12 10:52:58;;;;;;;15.02;12.25;;;;;;;;;;5093341;28;20028;-77
2023/05/12 10:55:35;;;;;;;14.00;11.10;;;;;;;;;;5093812;28;20115;-77
2023/05/12 10:58:12;;;;;;;12.20;10.40;;;;;;;;;;5093983;28;20046;-77
2023/05/12 11:00:45;;;;;;;13.80;12.13;;;;;;;;;;5092775;28;20031;-78
2023/05/12 11:03:12;;;;;;;13.25;11.18;;;;;;;;;;5094561;28;20028;-78
2023/05/12 11:05:38;;;;;;;16.88;12.77;;;;;;;;;;5093906;28;20031;-78
2023/05/12 11:08:04;;;;;;;13.73;11.60;;;;;;;;;;5094010;28;20355;-78
2023/05/12 11:10:30;;;;;;;13.25;10.23;;;;;;;;;;5081073;28;20105;-78
2023/05/12 11:12:56;;;;;;;14.85;12.88;;;;;;;;;;5073562;28;20029;-77
2023/05/12 11:15:22;;;;;;;16.30;14.23;;;;;;;;;;5073331;28;20039;-77
2023/05/12 11:17:48;;;;;;;14.18;12.32;;;;;;;;;;5073856;28;20066;-77
2023/05/12 11:20:24;;;;;;;15.95;14.25;;;;;;;;;;5073839;28;20108;-77
2023/05/12 11:22:51;;;;;;;16.77;13.55;;;;;;;;;;5074229;28;20023;-77
2023/05/12 11:25:17;;;;;;;14.90;11.30;;;;;;;;;;5073858;28;20506;-77
2023/05/12 11:27:47;;;;;;;16.77;14.18;;;;;;;;;;5074237;28;20104;-77
2023/05/12 11:30:13;;;;;;;17.67;14.45;;;;;;;;;;5074460;28;20013;-77
2023/05/12 11:32:39;;;;;;;13.25;11.65;;;;;;;;;;5074211;28;20032;-78
2023/05/12 11:35:08;;;;;;;12.48;11.18;;;;;;;;;;5074126;28;20092;-78
2023/05/12 11:37:39;;;;;;;17.85;15.93;;;;;;;;;;5074452;28;20451;-78
2023/05/12 11:40:17;;;;;;;16.85;13.55;;;;;;;;;;5073237;28;20053;-77
2023/05/12 11:42:47;;;;;;;25.58;14.88;;;;;;;;;;5073481;28;20060;-77
2023/05/12 11:45:32;;;;;;;21.15;16.08;;;;;;;;;;5074493;28;20051;-77
2023/05/12 11:48:06;;;;;;;16.08;13.88;;;;;;;;;;5074800;28;20422;-77
2023/05/12 11:50:32;;;;;;;18.95;15.77;;;;;;;;;;5073778;28;20025;-78
2023/05/12 11:52:58;;;;;;;19.48;15.60;;;;;;;;;;5073209;28;20103;-78
2023/05/12 11:55:24;;;;;;;18.70;15.82;;;;;;;;;;5073564;28;20055;-77
2023/05/12 11:58:03;;;;;;;20.27;16.27;;;;;;;;;;5073738;28;20021;-78
2023/05/12 12:00:33;;;;;;;18.57;15.63;;;;;;;;;;5074414;28;20497;-77
2023/05/12 12:03:10;;;;;;;17.88;15.30;;;;;;;;;;5073104;28;20023;-77
2023/05/12 12:05:36;;;;;;;17.92;14.10;;;;;;;;;;5076935;28;20466;-77
2023/05/12 12:08:12;;;;;;;18.42;12.77;;;;;;;;;;5076894;28;20021;-78
2023/05/12 12:10:38;;;;;;;18.92;14.73;;;;;;;;;;5083820;28;20452;-77
2023/05/12 12:13:04;;;;;;;14.68;12.57;;;;;;;;;;5096842;28;20476;-76
2023/05/12 12:15:30;;;;;;;17.20;15.27;;;;;;;;;;5097108;28;20032;-77
2023/05/12 12:17:56;;;;;;;20.98;15.70;;;;;;;;;;5097471;28;20043;-76
2023/05/12 12:20:23;;;;;;;16.73;14.15;;;;;;;;;;5096599;28;20386;-77
2023/05/12 12:22:49;;;;;;;17.42;14.60;;;;;;;;;;5096653;28;20401;-77
2023/05/12 12:25:15;;;;;;;16.75;13.15;;;;;;;;;;5096670;28;20110;-77
2023/05/12 12:27:51;;;;;;;15.07;12.70;;;;;;;;;;5096611;28;20109;-77
2023/05/12 12:30:18;;;;;;;16.98;15.15;;;;;;;;;;5096968;28;20031;-78
2023/05/12 12:32:44;;;;;;;18.77;14.35;;;;;;;;;;5078478;28;20056;-78
2023/05/12 12:35:11;;;;;;;14.45;11.93;;;;;;;;;;5096515;28;20378;-78
2023/05/12 12:37:37;;;;;;;19.05;15.23;;;;;;;;;;5096557;28;20424;-78
2023/05/12 12:40:07;;;;;;;16.73;12.98;;;;;;;;;;5097217;28;20382;-78
2023/05/12 12:42:33;;;;;;;15.38;11.65;;;;;;;;;;5096768;28;20405;-78
2023/05/12 12:45:00;;;;;;;11.85;8.98;;;;;;;;;;5078446;28;20070;-78
2023/05/12 12:47:26;;;;;;;18.67;14.52;;;;;;;;;;5096414;28;20031;-78
2023/05/12 12:49:51;;;;;;;16.85;13.57;;;;;;;;;;5096239;28;20379;-78
2023/05/12 12:52:17;;;;;;;15.18;12.80;;;;;;;;;;5096102;28;20039;-78
2023/05/12 12:54:47;;;;;;;17.45;15.65;;;;;;;;;;5078292;28;20424;-78
2023/05/12 12:57:13;;;;;;;21.23;15.77;;;;;;;;;;5096100;28;20029;-78
2023/05/12 12:59:39;;;;;;;15.73;13.05;;;;;;;;;;5096192;28;20028;-78
2023/05/12 13:02:06;;;;;;;16.85;13.13;;;;;;;;;;5096063;28;20032;-78
2023/05/12 13:04:32;;;;;;;15.85;12.50;;;;;;;;;;5095799;28;20386;-78
2023/05/12 13:10:16;;;;;;;16.52;12.57;;;;;;;;;;5073206;28;20035;-77
2023/05/12 13:12:42;;;;;;;18.80;16.02;;;;;;;;;;5078481;28;20094;-78
2023/05/12 13:15:09;;;;;;;16.27;11.38;;;;;;;;;;5094982;28;20032;-78
2023/05/12 13:17:35;;;;;;;14.43;10.38;;;;;;;;;;5077626;28;20028;-78
2023/05/12 13:20:02;;;;;;;18.42;14.23;;;;;;;;;;5096438;28;20027;-78
2023/05/12 13:22:28;;;;;;;14.80;12.48;;;;;;;;;;5095900;28;20017;-78
2023/05/12 13:24:55;;;;;;;10.38;8.23;;;;;;;;;;5095841;28;20024;-78
2023/05/12 13:27:21;;;;;;;11.57;9.98;;;;;;;;;;5095800;28;20077;-78
2023/05/12 13:29:47;;;;;;;11.25;9.70;;;;;;;;;;5095700;28;20031;-78
2023/05/12 13:32:13;;;;;;;13.98;11.60;;;;;;;;;;5095779;28;20070;-78
2023/05/12 13:34:40;;;;;;;15.10;11.48;;;;;;;;;;5095318;28;20024;-78
2023/05/12 13:37:06;;;;;;;18.77;12.77;;;;;;;;;;5095639;28;20046;-78
2023/05/12 13:39:34;;;;;;;14.80;12.27;;;;;;;;;;5095250;28;20028;-78
2023/05/12 13:42:01;;;;;;;17.50;13.48;;;;;;;;;;5095596;28;20104;-78
2023/05/12 13:44:27;;;;;;;16.10;13.63;;;;;;;;;;5077028;28;20023;-77
2023/05/12 13:46:53;;;;;;;14.13;11.10;;;;;;;;;;5077009;28;20395;-78
2023/05/12 13:49:32;;;;;;;9.95;8.38;;;;;;;;;;5076667;28;20119;-78
2023/05/12 13:52:07;;;;;;;12.27;10.48;;;;;;;;;;5095180;28;20028;-78
2023/05/12 13:54:33;;;;;;;15.75;13.93;;;;;;;;;;5095270;28;20028;-78
2023/05/12 13:57:03;;;;;;;13.45;11.50;;;;;;;;;;5094794;28;20027;-78
2023/05/12 13:59:29;;;;;;;18.60;15.77;;;;;;;;;;5076795;28;20402;-78
2023/05/12 14:01:56;;;;;;;18.73;14.93;;;;;;;;;;5094750;28;20053;-78
2023/05/12 14:04:22;;;;;;;13.68;11.43;;;;;;;;;;5095085;28;20024;-78
2023/05/12 14:06:48;;;;;;;14.77;12.23;;;;;;;;;;5094742;28;20035;-78
2023/05/12 14:09:14;;;;;;;15.20;11.57;;;;;;;;;;5094980;28;20044;-78
2023/05/12 14:11:40;;;;;;;14.52;13.00;;;;;;;;;;5094654;28;20052;-77
2023/05/12 14:14:07;;;;;;;16.20;13.48;;;;;;;;;;5094575;28;20097;-78
2023/05/12 14:16:33;;;;;;;20.83;15.30;;;;;;;;;;5094731;28;20020;-77
2023/05/12 14:18:59;;;;;;;19.50;14.13;;;;;;;;;;5076340;28;20042;-78
2023/05/12 14:21:25;;;;;;;14.88;12.00;;;;;;;;;;5094927;28;20378;-78
2023/05/12 14:23:51;;;;;;;18.92;13.35;;;;;;;;;;5095091;28;20082;-78
2023/05/12 14:26:18;;;;;;;12.57;9.75;;;;;;;;;;5094025;28;20686;-78
2023/05/12 14:28:45;;;;;;;18.58;13.93;;;;;;;;;;5094307;28;20039;-78